Date,TemperatureHighF,TemperatureAvgF,TemperatureLowF,DewpointHighF,DewpointAvgF,DewpointLowF,HumidityHigh,HumidityAvg,HumidityLow,PressureMaxIn,PressureMinIn,WindSpeedMaxMPH,WindSpeedAvgMPH,GustSpeedMaxMPH,PrecipitationSumIn
2013-5-1,29.3,24.7,20.0,28.2,21.1,15.5,96,86,72,30.54,30.06,3,0,3,0.00
2013-5-2,37.2,26.5,18.2,25.4,18.8,12.1,87,73,52,30.64,30.46,8,0,8,0.33
2013-5-3,51.6,38.5,27.8,29.7,20.7,10.1,74,50,28,30.46,30.23,14,1,14,0.16
2013-5-4,45.9,36.0,28.7,32.3,26.1,19.3,80,68,49,30.31,30.20,10,1,10,0.00
2013-5-5,47.6,35.9,27.2,34.6,26.8,19.3,94,71,47,30.31,30.21,8,1,8,0.05
2013-5-6,53.0,42.7,33.5,36.0,31.8,27.3,93,67,46,30.23,30.11,11,1,11,0.00
2013-5-7,57.2,45.7,37.5,36.6,31.5,23.0,92,60,28,30.18,30.08,12,2,12,0.03
2013-5-8,46.9,37.7,32.4,39.7,32.8,27.5,97,83,62,30.26,30.11,10,1,10,0.27
2013-5-9,44.0,36.7,32.6,38.6,34.3,30.1,97,91,75,30.35,30.23,7,0,7,1.00
2013-5-10,50.4,40.7,31.1,40.9,32.6,27.5,91,73,52,30.48,30.31,7,1,7,0.09
2013-5-11,57.9,43.6,33.5,43.9,34.3,27.6,86,71,34,30.51,30.40,8,1,8,0.05
2013-5-12,67.0,53.9,41.0,35.1,29.1,23.6,75,40,22,30.46,30.37,11,1,11,0.00
2013-5-13,71.8,60.9,52.7,38.5,31.7,27.5,46,34,21,30.45,30.32,11,2,11,0.00
2013-5-14,71.5,59.6,51.3,47.4,33.8,28.5,83,39,22,30.32,30.21,12,2,12,0.08
2013-5-15,69.3,55.2,43.9,40.6,35.1,29.7,81,48,27,30.24,30.15,9,2,9,0.00
2013-5-16,66.7,54.9,43.7,38.1,33.8,30.0,80,46,28,30.16,30.06,13,2,13,0.00
2013-5-17,73.5,58.0,44.8,36.0,26.0,15.2,60,33,12,30.15,30.05,11,1,11,0.00
2013-5-18,58.6,50.4,41.8,36.2,25.6,16.0,67,39,21,30.12,29.98,14,2,14,0.00
2013-5-19,52.9,44.5,39.7,30.8,27.1,23.6,63,51,36,30.02,29.92,16,3,16,0.00
2013-5-20,54.4,44.2,37.5,33.9,28.8,22.8,85,56,37,30.16,29.97,12,2,12,0.00
2013-5-21,58.4,45.3,35.9,28.3,24.1,18.6,70,44,26,30.17,30.07,19,2,19,0.00
2013-5-22,62.7,49.5,34.7,42.5,33.3,26.8,95,57,32,30.24,30.08,11,1,11,0.16
2013-5-23,51.2,44.7,40.5,47.7,43.0,39.7,98,94,86,30.25,30.17,5,0,5,0.01
2013-5-24,70.3,55.5,44.3,42.4,34.5,20.3,93,52,17,30.25,30.13,9,1,9,0.00
2013-5-25,72.5,59.3,44.7,43.8,25.6,10.2,83,32,10,30.25,30.15,9,2,9,0.00
2013-5-26,71.0,58.7,49.4,33.1,22.8,11.6,42,26,11,30.20,30.13,10,2,10,0.00
2013-5-27,68.3,58.3,46.4,25.9,19.7,13.3,43,23,14,30.13,29.99,13,2,13,0.00
2013-5-28,64.1,53.6,42.8,42.3,29.6,21.1,57,41,21,30.03,29.81,18,1,18,0.00
2013-5-29,54.1,44.7,39.2,39.0,32.4,24.9,90,64,33,29.85,29.74,20,2,20,0.00
2013-5-30,52.4,43.9,39.1,30.2,23.9,17.1,62,46,28,29.99,29.73,30,6,30,0.00
2013-5-31,55.1,45.9,37.5,21.0,17.0,9.5,49,32,21,30.20,29.93,23,4,23,0.00